sensor_id;sensor_type;location;lat;lon;timestamp;pressure;altitude;pressure_sealevel;temperature;humidity
39739;BME280;25422;48.286;8.484;2022-08-19T00:01:37;93846.69;;;15.98;100.00
39739;BME280;25422;48.286;8.484;2022-08-19T00:04:04;93847.72;;;15.97;100.00
39739;BME280;25422;48.286;8.484;2022-08-19T00:06:31;93845.69;;;15.99;100.00
39739;BME280;25422;48.286;8.484;2022-08-19T00:08:57;93845.91;;;15.98;100.00
39739;BME280;25422;48.286;8.484;2022-08-19T00:11:25;93840.63;;;15.98;100.00
39739;BME280;25422;48.286;8.484;2022-08-19T00:13:54;93837.97;;;15.98;100.00
39739;BME280;25422;48.286;8.484;2022-08-19T00:16:23;93837.16;;;15.97;100.00
39739;BME280;25422;48.286;8.484;2022-08-19T00:18:48;93840.00;;;15.96;100.00
39739;BME280;25422;48.286;8.484;2022-08-19T00:21:14;93843.25;;;15.98;100.00
39739;BME280;25422;48.286;8.484;2022-08-19T00:23:41;93833.72;;;15.97;100.00
39739;BME280;25422;48.286;8.484;2022-08-19T00:26:09;93827.03;;;15.94;100.00
39739;BME280;25422;48.286;8.484;2022-08-19T00:28:35;93827.03;;;15.94;100.00
39739;BME280;25422;48.286;8.484;2022-08-19T00:31:03;93830.25;;;15.96;100.00
39739;BME280;25422;48.286;8.484;2022-08-19T00:33:30;93836.56;;;15.95;100.00
39739;BME280;25422;48.286;8.484;2022-08-19T00:36:00;93835.75;;;15.95;100.00
39739;BME280;25422;48.286;8.484;2022-08-19T00:38:26;93843.66;;;15.95;100.00
39739;BME280;25422;48.286;8.484;2022-08-19T00:40:52;93839.41;;;15.94;100.00
39739;BME280;25422;48.286;8.484;2022-08-19T00:43:22;93836.75;;;15.94;100.00
39739;BME280;25422;48.286;8.484;2022-08-19T00:45:48;93842.03;;;15.94;100.00
39739;BME280;25422;48.286;8.484;2022-08-19T00:48:16;93842.84;;;15.94;100.00
39739;BME280;25422;48.286;8.484;2022-08-19T00:50:42;93847.31;;;15.94;100.00
39739;BME280;25422;48.286;8.484;2022-08-19T00:53:10;93839.81;;;15.91;100.00
39739;BME280;25422;48.286;8.484;2022-08-19T00:55:37;93842.09;;;15.87;100.00
39739;BME280;25422;48.286;8.484;2022-08-19T00:58:07;93838.41;;;15.88;100.00
39739;BME280;25422;48.286;8.484;2022-08-19T01:00:35;93840.47;;;15.86;100.00
39739;BME280;25422;48.286;8.484;2022-08-19T01:03:07;93832.75;;;15.84;100.00
39739;BME280;25422;48.286;8.484;2022-08-19T01:05:34;93832.16;;;15.82;100.00
39739;BME280;25422;48.286;8.484;2022-08-19T01:08:02;93824.25;;;15.82;100.00
39739;BME280;25422;48.286;8.484;2022-08-19T01:10:31;93821.03;;;15.80;100.00
39739;BME280;25422;48.286;8.484;2022-08-19T01:12:59;93816.53;;;15.81;100.00
39739;BME280;25422;48.286;8.484;2022-08-19T01:15:32;93823.00;;;15.78;100.00
39739;BME280;25422;48.286;8.484;2022-08-19T01:18:02;93823.00;;;15.78;100.00
39739;BME280;25422;48.286;8.484;2022-08-19T01:20:29;93822.44;;;15.76;100.00
39739;BME280;25422;48.286;8.484;2022-08-19T01:22:58;93820.81;;;15.75;100.00
39739;BME280;25422;48.286;8.484;2022-08-19T01:25:30;93818.75;;;15.77;100.00
39739;BME280;25422;48.286;8.484;2022-08-19T01:27:57;93821.38;;;15.77;100.00
39739;BME280;25422;48.286;8.484;2022-08-19T01:30:26;93821.38;;;15.77;100.00
39739;BME280;25422;48.286;8.484;2022-08-19T01:32:52;93821.38;;;15.77;100.00
39739;BME280;25422;48.286;8.484;2022-08-19T01:35:20;93817.75;;;15.78;100.00
39739;BME280;25422;48.286;8.484;2022-08-19T01:37:56;93814.53;;;15.76;100.00
39739;BME280;25422;48.286;8.484;2022-08-19T01:40:25;93803.13;;;15.76;100.00
39739;BME280;25422;48.286;8.484;2022-08-19T01:42:52;93812.91;;;15.75;100.00
39739;BME280;25422;48.286;8.484;2022-08-19T01:45:19;93808.03;;;15.72;100.00
39739;BME280;25422;48.286;8.484;2022-08-19T01:47:45;93804.59;;;15.72;100.00
39739;BME280;25422;48.286;8.484;2022-08-19T01:50:11;93803.38;;;15.67;100.00
39739;BME280;25422;48.286;8.484;2022-08-19T01:52:39;93806.03;;;15.67;100.00
39739;BME280;25422;48.286;8.484;2022-08-19T01:55:07;93806.25;;;15.66;100.00
39739;BME280;25422;48.286;8.484;2022-08-19T01:57:33;93809.88;;;15.65;100.00
39739;BME280;25422;48.286;8.484;2022-08-19T01:59:59;93798.75;;;15.63;100.00
39739;BME280;25422;48.286;8.484;2022-08-19T02:02:25;93798.97;;;15.61;100.00
39739;BME280;25422;48.286;8.484;2022-08-19T02:04:51;93792.28;;;15.59;100.00
39739;BME280;25422;48.286;8.484;2022-08-19T02:07:19;93790.03;;;15.56;100.00
39739;BME280;25422;48.286;8.484;2022-08-19T02:09:45;93791.88;;;15.55;100.00
39739;BME280;25422;48.286;8.484;2022-08-19T02:12:11;93796.75;;;15.51;100.00
39739;BME280;25422;48.286;8.484;2022-08-19T02:14:36;93795.16;;;15.50;100.00
39739;BME280;25422;48.286;8.484;2022-08-19T02:17:03;93805.69;;;15.50;100.00
39739;BME280;25422;48.286;8.484;2022-08-19T02:19:28;93801.44;;;15.49;100.00
39739;BME280;25422;48.286;8.484;2022-08-19T02:21:54;93804.88;;;15.50;100.00
39739;BME280;25422;48.286;8.484;2022-08-19T02:24:19;93798.19;;;15.47;100.00
39739;BME280;25422;48.286;8.484;2022-08-19T02:26:44;93801.88;;;15.46;100.00
39739;BME280;25422;48.286;8.484;2022-08-19T02:29:10;93797.59;;;15.45;100.00
39739;BME280;25422;48.286;8.484;2022-08-19T02:31:35;93797.59;;;15.45;100.00
39739;BME280;25422;48.286;8.484;2022-08-19T02:34:01;93794.97;;;15.45;100.00
39739;BME280;25422;48.286;8.484;2022-08-19T02:36:27;93790.72;;;15.44;100.00
39739;BME280;25422;48.286;8.484;2022-08-19T02:38:53;93789.09;;;15.43;100.00
39739;BME280;25422;48.286;8.484;2022-08-19T02:41:26;93783.22;;;15.41;100.00
39739;BME280;25422;48.286;8.484;2022-08-19T02:43:52;93787.66;;;15.41;100.00
39739;BME280;25422;48.286;8.484;2022-08-19T02:46:18;93784.66;;;15.37;100.00
39739;BME280;25422;48.286;8.484;2022-08-19T02:48:54;93783.03;;;15.36;100.00
39739;BME280;25422;48.286;8.484;2022-08-19T02:51:24;93778.19;;;15.33;100.00
39739;BME280;25422;48.286;8.484;2022-08-19T02:53:49;93785.28;;;15.32;100.00
39739;BME280;25422;48.286;8.484;2022-08-19T02:56:15;93779.41;;;15.30;100.00
39739;BME280;25422;48.286;8.484;2022-08-19T02:58:41;93776.38;;;15.27;100.00
39739;BME280;25422;48.286;8.484;2022-08-19T03:01:07;93777.81;;;15.23;100.00
39739;BME280;25422;48.286;8.484;2022-08-19T03:03:32;93789.56;;;15.20;100.00
39739;BME280;25422;48.286;8.484;2022-08-19T03:06:10;93797.69;;;15.18;100.00
39739;BME280;25422;48.286;8.484;2022-08-19T03:08:38;93793.22;;;15.19;100.00
39739;BME280;25422;48.286;8.484;2022-08-19T03:11:04;93798.31;;;15.21;100.00
39739;BME280;25422;48.286;8.484;2022-08-19T03:13:29;93798.88;;;15.23;100.00
39739;BME280;25422;48.286;8.484;2022-08-19T03:15:55;93802.13;;;15.25;100.00
39739;BME280;25422;48.286;8.484;2022-08-19T03:18:20;93798.25;;;15.27;100.00
39739;BME280;25422;48.286;8.484;2022-08-19T03:20:51;93807.78;;;15.28;100.00
39739;BME280;25422;48.286;8.484;2022-08-19T03:23:22;93809.81;;;15.33;100.00
39739;BME280;25422;48.286;8.484;2022-08-19T03:25:51;93810.81;;;15.32;100.00
39739;BME280;25422;48.286;8.484;2022-08-19T03:28:17;93818.94;;;15.37;100.00
39739;BME280;25422;48.286;8.484;2022-08-19T03:30:53;93810.81;;;15.39;100.00
39739;BME280;25422;48.286;8.484;2022-08-19T03:33:21;93800.06;;;15.33;100.00
39739;BME280;25422;48.286;8.484;2022-08-19T03:35:46;93809.00;;;15.32;100.00
39739;BME280;25422;48.286;8.484;2022-08-19T03:38:12;93795.81;;;15.32;100.00
39739;BME280;25422;48.286;8.484;2022-08-19T03:40:37;93795.59;;;15.34;100.00
39739;BME280;25422;48.286;8.484;2022-08-19T03:43:02;93814.47;;;15.31;100.00
39739;BME280;25422;48.286;8.484;2022-08-19T03:45:28;93813.47;;;15.32;100.00
39739;BME280;25422;48.286;8.484;2022-08-19T03:47:54;93823.22;;;15.31;100.00
39739;BME280;25422;48.286;8.484;2022-08-19T03:50:20;93824.00;;;15.32;100.00
39739;BME280;25422;48.286;8.484;2022-08-19T03:52:51;93821.59;;;15.30;100.00
39739;BME280;25422;48.286;8.484;2022-08-19T03:55:18;93829.28;;;15.32;100.00
39739;BME280;25422;48.286;8.484;2022-08-19T03:57:44;93824.44;;;15.29;100.00
39739;BME280;25422;48.286;8.484;2022-08-19T04:00:11;93814.91;;;15.28;100.00
39739;BME280;25422;48.286;8.484;2022-08-19T04:02:37;93820.38;;;15.26;100.00
39739;BME280;25422;48.286;8.484;2022-08-19T04:05:02;93812.69;;;15.25;100.00
39739;BME280;25422;48.286;8.484;2022-08-19T04:07:28;93817.13;;;15.24;100.00
39739;BME280;25422;48.286;8.484;2022-08-19T04:09:53;93826.03;;;15.23;100.00
39739;BME280;25422;48.286;8.484;2022-08-19T04:12:18;93828.66;;;15.23;100.00
39739;BME280;25422;48.286;8.484;2022-08-19T04:14:46;93826.88;;;15.24;100.00
39739;BME280;25422;48.286;8.484;2022-08-19T04:17:11;93835.56;;;15.24;100.00
39739;BME280;25422;48.286;8.484;2022-08-19T04:19:39;93836.41;;;15.25;100.00
39739;BME280;25422;48.286;8.484;2022-08-19T04:22:05;93831.94;;;15.25;100.00
39739;BME280;25422;48.286;8.484;2022-08-19T04:24:32;93822.59;;;15.23;100.00
39739;BME280;25422;48.286;8.484;2022-08-19T04:27:00;93830.91;;;15.26;100.00
39739;BME280;25422;48.286;8.484;2022-08-19T04:29:25;93827.66;;;15.24;100.00
39739;BME280;25422;48.286;8.484;2022-08-19T04:31:54;93832.94;;;15.24;100.00
39739;BME280;25422;48.286;8.484;2022-08-19T04:34:23;93822.81;;;15.28;100.00
39739;BME280;25422;48.286;8.484;2022-08-19T04:36:50;93832.34;;;15.29;100.00
39739;BME280;25422;48.286;8.484;2022-08-19T04:39:18;93828.06;;;15.28;100.00
39739;BME280;25422;48.286;8.484;2022-08-19T04:41:45;93827.25;;;15.27;100.00
39739;BME280;25422;48.286;8.484;2022-08-19T04:44:34;93823.22;;;15.25;100.00
39739;BME280;25422;48.286;8.484;2022-08-19T04:47:01;93825.66;;;15.26;100.00
39739;BME280;25422;48.286;8.484;2022-08-19T04:49:28;93830.72;;;15.28;100.00
39739;BME280;25422;48.286;8.484;2022-08-19T04:51:55;93819.56;;;15.26;100.00
39739;BME280;25422;48.286;8.484;2022-08-19T04:54:23;93823.00;;;15.26;100.00
39739;BME280;25422;48.286;8.484;2022-08-19T04:56:49;93822.81;;;15.28;100.00
39739;BME280;25422;48.286;8.484;2022-08-19T04:59:16;93827.06;;;15.29;100.00
39739;BME280;25422;48.286;8.484;2022-08-19T05:01:42;93833.56;;;15.26;100.00
39739;BME280;25422;48.286;8.484;2022-08-19T05:04:08;93840.63;;;15.26;100.00
39739;BME280;25422;48.286;8.484;2022-08-19T05:06:35;93841.47;;;15.26;100.00
39739;BME280;25422;48.286;8.484;2022-08-19T05:09:02;93843.47;;;15.24;100.00
39739;BME280;25422;48.286;8.484;2022-08-19T05:11:33;93844.91;;;15.27;100.00
39739;BME280;25422;48.286;8.484;2022-08-19T05:14:00;93855.03;;;15.23;100.00
39739;BME280;25422;48.286;8.484;2022-08-19T05:16:26;93855.84;;;15.24;100.00
39739;BME280;25422;48.286;8.484;2022-08-19T05:18:52;93853.63;;;15.21;100.00
39739;BME280;25422;48.286;8.484;2022-08-19T05:21:39;93862.13;;;15.23;100.00
39739;BME280;25422;48.286;8.484;2022-08-19T05:24:23;93855.84;;;15.24;100.00
39739;BME280;25422;48.286;8.484;2022-08-19T05:26:50;93860.91;;;15.25;100.00
39739;BME280;25422;48.286;8.484;2022-08-19T05:29:19;93868.81;;;15.25;100.00
39739;BME280;25422;48.286;8.484;2022-08-19T05:31:46;93876.53;;;15.27;100.00
39739;BME280;25422;48.286;8.484;2022-08-19T05:34:12;93874.69;;;15.27;100.00
39739;BME280;25422;48.286;8.484;2022-08-19T05:36:41;93880.78;;;15.28;100.00
39739;BME280;25422;48.286;8.484;2022-08-19T05:39:11;93880.16;;;15.26;100.00
39739;BME280;25422;48.286;8.484;2022-08-19T05:41:51;93878.34;;;15.26;100.00
39739;BME280;25422;48.286;8.484;2022-08-19T05:44:18;93865.38;;;15.25;100.00
39739;BME280;25422;48.286;8.484;2022-08-19T05:46:45;93872.25;;;15.26;100.00
39739;BME280;25422;48.286;8.484;2022-08-19T05:49:15;93873.28;;;15.25;100.00
39739;BME280;25422;48.286;8.484;2022-08-19T05:51:42;93876.94;;;15.24;100.00
39739;BME280;25422;48.286;8.484;2022-08-19T05:54:08;93880.16;;;15.26;100.00
39739;BME280;25422;48.286;8.484;2022-08-19T05:56:35;93888.47;;;15.29;100.00
39739;BME280;25422;48.286;8.484;2022-08-19T05:59:04;93894.75;;;15.28;100.00
39739;BME280;25422;48.286;8.484;2022-08-19T06:01:33;93887.69;;;15.29;100.00
39739;BME280;25422;48.286;8.484;2022-08-19T06:04:00;93885.63;;;15.31;100.00
39739;BME280;25422;48.286;8.484;2022-08-19T06:06:25;93900.63;;;15.37;100.00
39739;BME280;25422;48.286;8.484;2022-08-19T06:08:50;93903.06;;;15.45;100.00
39739;BME280;25422;48.286;8.484;2022-08-19T06:11:24;93909.13;;;15.46;100.00
39739;BME280;25422;48.286;8.484;2022-08-19T06:13:52;93906.91;;;15.49;100.00
39739;BME280;25422;48.286;8.484;2022-08-19T06:16:20;93910.31;;;15.50;100.00
39739;BME280;25422;48.286;8.484;2022-08-19T06:18:51;93914.38;;;15.52;100.00
39739;BME280;25422;48.286;8.484;2022-08-19T06:21:21;93905.88;;;15.50;100.00
39739;BME280;25422;48.286;8.484;2022-08-19T06:23:47;93911.53;;;15.47;100.00
39739;BME280;25422;48.286;8.484;2022-08-19T06:26:15;93918.44;;;15.48;100.00
39739;BME280;25422;48.286;8.484;2022-08-19T06:28:40;93911.97;;;15.51;100.00
39739;BME280;25422;48.286;8.484;2022-08-19T06:31:13;93924.13;;;15.52;100.00
39739;BME280;25422;48.286;8.484;2022-08-19T06:33:41;93914.38;;;15.52;100.00
39739;BME280;25422;48.286;8.484;2022-08-19T06:36:07;93909.09;;;15.52;100.00
39739;BME280;25422;48.286;8.484;2022-08-19T06:38:32;93910.53;;;15.55;100.00
39739;BME280;25422;48.286;8.484;2022-08-19T06:41:03;93915.38;;;15.58;100.00
39739;BME280;25422;48.286;8.484;2022-08-19T06:43:29;93910.72;;;15.60;100.00
39739;BME280;25422;48.286;8.484;2022-08-19T06:45:55;93911.31;;;15.62;100.00
39739;BME280;25422;48.286;8.484;2022-08-19T06:48:20;93900.75;;;15.62;100.00
39739;BME280;25422;48.286;8.484;2022-08-19T06:50:46;93910.28;;;15.70;100.00
39739;BME280;25422;48.286;8.484;2022-08-19T06:53:12;93909.84;;;15.73;100.00
39739;BME280;25422;48.286;8.484;2022-08-19T06:55:38;93916.94;;;15.79;100.00
39739;BME280;25422;48.286;8.484;2022-08-19T06:58:04;93915.97;;;15.80;100.00
39739;BME280;25422;48.286;8.484;2022-08-19T07:00:31;93922.84;;;15.81;100.00
39739;BME280;25422;48.286;8.484;2022-08-19T07:02:57;93920.56;;;15.98;100.00
39739;BME280;25422;48.286;8.484;2022-08-19T07:05:23;93919.78;;;15.98;100.00
39739;BME280;25422;48.286;8.484;2022-08-19T07:07:49;93924.44;;;15.89;100.00
39739;BME280;25422;48.286;8.484;2022-08-19T07:10:15;93921.00;;;15.89;100.00
39739;BME280;25422;48.286;8.484;2022-08-19T07:12:40;93917.56;;;15.88;100.00
39739;BME280;25422;48.286;8.484;2022-08-19T07:15:06;93919.19;;;15.89;100.00
39739;BME280;25422;48.286;8.484;2022-08-19T07:17:33;93928.50;;;15.92;100.00
39739;BME280;25422;48.286;8.484;2022-08-19T07:20:03;93913.44;;;15.99;100.00
39739;BME280;25422;48.286;8.484;2022-08-19T07:22:28;93927.25;;;16.01;100.00
39739;BME280;25422;48.286;8.484;2022-08-19T07:24:54;93915.44;;;16.10;100.00
39739;BME280;25422;48.286;8.484;2022-08-19T07:27:20;93921.06;;;16.21;100.00
39739;BME280;25422;48.286;8.484;2022-08-19T07:29:45;93906.06;;;16.21;100.00
39739;BME280;25422;48.286;8.484;2022-08-19T07:32:11;93909.88;;;16.32;100.00
39739;BME280;25422;48.286;8.484;2022-08-19T07:34:36;93907.63;;;16.29;100.00
39739;BME280;25422;48.286;8.484;2022-08-19T07:37:04;93916.59;;;16.28;100.00
39739;BME280;25422;48.286;8.484;2022-08-19T07:39:32;93919.22;;;16.28;100.00
39739;BME280;25422;48.286;8.484;2022-08-19T07:42:00;93920.66;;;16.24;100.00
39739;BME280;25422;48.286;8.484;2022-08-19T07:44:26;93920.84;;;16.22;100.00
39739;BME280;25422;48.286;8.484;2022-08-19T07:46:54;93924.88;;;16.31;100.00
39739;BME280;25422;48.286;8.484;2022-08-19T07:49:21;93920.47;;;16.25;100.00
39739;BME280;25422;48.286;8.484;2022-08-19T07:51:53;93921.63;;;16.36;100.00
39739;BME280;25422;48.286;8.484;2022-08-19T07:54:20;93924.00;;;16.44;100.00
39739;BME280;25422;48.286;8.484;2022-08-19T07:56:45;93930.66;;;16.54;100.00
39739;BME280;25422;48.286;8.484;2022-08-19T07:59:11;93930.66;;;16.54;100.00
39739;BME280;25422;48.286;8.484;2022-08-19T08:01:37;93935.09;;;16.60;100.00
39739;BME280;25422;48.286;8.484;2022-08-19T08:04:06;93933.34;;;16.47;100.00
39739;BME280;25422;48.286;8.484;2022-08-19T08:06:52;93940.16;;;16.61;100.00
39739;BME280;25422;48.286;8.484;2022-08-19T08:09:40;93945.09;;;16.51;100.00
39739;BME280;25422;48.286;8.484;2022-08-19T08:12:09;93947.53;;;16.52;100.00
39739;BME280;25422;48.286;8.484;2022-08-19T08:14:37;93944.28;;;16.50;100.00
39739;BME280;25422;48.286;8.484;2022-08-19T08:17:04;93945.22;;;16.63;100.00
39739;BME280;25422;48.286;8.484;2022-08-19T08:19:30;93946.59;;;16.72;100.00
39739;BME280;25422;48.286;8.484;2022-08-19T08:21:57;93943.47;;;16.82;100.00
39739;BME280;25422;48.286;8.484;2022-08-19T08:24:25;93939.59;;;16.84;100.00
39739;BME280;25422;48.286;8.484;2022-08-19T08:26:50;93933.38;;;16.72;100.00
39739;BME280;25422;48.286;8.484;2022-08-19T08:29:16;93939.19;;;16.88;100.00
39739;BME280;25422;48.286;8.484;2022-08-19T08:31:43;93938.94;;;16.96;100.00
39739;BME280;25422;48.286;8.484;2022-08-19T08:34:09;93945.03;;;16.96;100.00
39739;BME280;25422;48.286;8.484;2022-08-19T08:36:39;93945.41;;;17.00;100.00
39739;BME280;25422;48.286;8.484;2022-08-19T08:39:14;93942.72;;;17.07;100.00
39739;BME280;25422;48.286;8.484;2022-08-19T08:41:55;93955.25;;;17.18;100.00
39739;BME280;25422;48.286;8.484;2022-08-19T08:44:28;93956.25;;;17.42;100.00
39739;BME280;25422;48.286;8.484;2022-08-19T08:47:03;93955.19;;;17.50;100.00
39739;BME280;25422;48.286;8.484;2022-08-19T08:49:46;93963.84;;;17.57;100.00
39739;BME280;25422;48.286;8.484;2022-08-19T08:52:19;93965.31;;;17.53;100.00
39739;BME280;25422;48.286;8.484;2022-08-19T08:54:50;93973.59;;;17.38;100.00
39739;BME280;25422;48.286;8.484;2022-08-19T08:57:30;93974.34;;;17.20;100.00
39739;BME280;25422;48.286;8.484;2022-08-19T09:00:00;93973.69;;;17.25;100.00
39739;BME280;25422;48.286;8.484;2022-08-19T09:02:28;93979.16;;;17.30;100.00
39739;BME280;25422;48.286;8.484;2022-08-19T09:04:54;93981.50;;;17.38;100.00
39739;BME280;25422;48.286;8.484;2022-08-19T09:07:31;93978.06;;;17.12;100.00
39739;BME280;25422;48.286;8.484;2022-08-19T09:10:21;93980.00;;;16.98;100.00
39739;BME280;25422;48.286;8.484;2022-08-19T09:15:37;93981.22;;;16.96;100.00
39739;BME280;25422;48.286;8.484;2022-08-19T09:18:04;93981.63;;;16.93;100.00
39739;BME280;25422;48.286;8.484;2022-08-19T09:20:31;93984.28;;;16.86;100.00
39739;BME280;25422;48.286;8.484;2022-08-19T09:22:57;93986.34;;;16.84;100.00
39739;BME280;25422;48.286;8.484;2022-08-19T09:25:24;93981.91;;;16.78;100.00
39739;BME280;25422;48.286;8.484;2022-08-19T09:27:51;93976.66;;;16.71;100.00
39739;BME280;25422;48.286;8.484;2022-08-19T09:30:26;93985.19;;;16.73;100.00
39739;BME280;25422;48.286;8.484;2022-08-19T09:32:53;93984.00;;;16.69;100.00
39739;BME280;25422;48.286;8.484;2022-08-19T09:35:21;93981.59;;;16.61;100.00
39739;BME280;25422;48.286;8.484;2022-08-19T09:37:47;93986.66;;;16.62;100.00
39739;BME280;25422;48.286;8.484;2022-08-19T09:40:14;93993.94;;;16.67;100.00
39739;BME280;25422;48.286;8.484;2022-08-19T09:42:40;93991.28;;;16.74;100.00
39739;BME280;25422;48.286;8.484;2022-08-19T09:45:09;93993.13;;;16.73;100.00
39739;BME280;25422;48.286;8.484;2022-08-19T09:47:35;93989.69;;;16.73;100.00
39739;BME280;25422;48.286;8.484;2022-08-19T09:50:04;93999.59;;;16.77;100.00
39739;BME280;25422;48.286;8.484;2022-08-19T09:52:31;94002.63;;;16.81;100.00
39739;BME280;25422;48.286;8.484;2022-08-19T09:54:56;94013.41;;;16.79;100.00
39739;BME280;25422;48.286;8.484;2022-08-19T09:57:22;94015.47;;;16.71;100.00
39739;BME280;25422;48.286;8.484;2022-08-19T09:59:47;94015.25;;;16.72;100.00
39739;BME280;25422;48.286;8.484;2022-08-19T10:02:13;94014.66;;;16.77;100.00
39739;BME280;25422;48.286;8.484;2022-08-19T10:04:38;94012.63;;;16.72;100.00
39739;BME280;25422;48.286;8.484;2022-08-19T10:07:23;94007.72;;;16.76;100.00
39739;BME280;25422;48.286;8.484;2022-08-19T10:09:48;93999.34;;;16.85;100.00
39739;BME280;25422;48.286;8.484;2022-08-19T10:12:13;94002.59;;;16.94;100.00
39739;BME280;25422;48.286;8.484;2022-08-19T10:14:40;93999.69;;;17.02;100.00
39739;BME280;25422;48.286;8.484;2022-08-19T10:17:06;94002.06;;;17.11;100.00
39739;BME280;25422;48.286;8.484;2022-08-19T10:19:31;93999.06;;;17.32;100.00
39739;BME280;25422;48.286;8.484;2022-08-19T10:22:05;94000.03;;;17.38;100.00
39739;BME280;25422;48.286;8.484;2022-08-19T10:24:31;94010.00;;;17.61;100.00
39739;BME280;25422;48.286;8.484;2022-08-19T10:26:57;94024.75;;;17.76;100.00
39739;BME280;25422;48.286;8.484;2022-08-19T10:29:22;94019.53;;;17.87;100.00
39739;BME280;25422;48.286;8.484;2022-08-19T10:31:48;94014.28;;;18.06;100.00
39739;BME280;25422;48.286;8.484;2022-08-19T10:34:13;94013.84;;;18.09;100.00
39739;BME280;25422;48.286;8.484;2022-08-19T10:36:39;94011.78;;;18.30;100.00
39739;BME280;25422;48.286;8.484;2022-08-19T10:39:08;94011.19;;;18.46;100.00
39739;BME280;25422;48.286;8.484;2022-08-19T10:41:36;94013.31;;;18.37;100.00
39739;BME280;25422;48.286;8.484;2022-08-19T10:44:05;94010.44;;;18.58;100.00
39739;BME280;25422;48.286;8.484;2022-08-19T10:46:33;94008.66;;;18.70;100.00
39739;BME280;25422;48.286;8.484;2022-08-19T10:49:00;94004.09;;;19.08;100.00
39739;BME280;25422;48.286;8.484;2022-08-19T10:51:27;94009.16;;;19.09;100.00
39739;BME280;25422;48.286;8.484;2022-08-19T10:54:11;94000.41;;;19.09;100.00
39739;BME280;25422;48.286;8.484;2022-08-19T10:56:36;94008.09;;;19.41;100.00
39739;BME280;25422;48.286;8.484;2022-08-19T10:59:23;94001.50;;;19.31;100.00
39739;BME280;25422;48.286;8.484;2022-08-19T11:01:50;94006.53;;;19.09;100.00
39739;BME280;25422;48.286;8.484;2022-08-19T11:04:17;93998.69;;;18.84;100.00
39739;BME280;25422;48.286;8.484;2022-08-19T11:06:48;94004.66;;;18.79;100.00
39739;BME280;25422;48.286;8.484;2022-08-19T11:09:19;94011.53;;;18.68;100.00
39739;BME280;25422;48.286;8.484;2022-08-19T11:11:45;94010.72;;;18.68;100.00
39739;BME280;25422;48.286;8.484;2022-08-19T11:14:14;94005.44;;;18.68;100.00
39739;BME280;25422;48.286;8.484;2022-08-19T11:16:41;93995.78;;;18.74;100.00
39739;BME280;25422;48.286;8.484;2022-08-19T11:19:09;94002.56;;;18.81;100.00
39739;BME280;25422;48.286;8.484;2022-08-19T11:21:38;94000.47;;;18.90;100.00
39739;BME280;25422;48.286;8.484;2022-08-19T11:24:08;94000.63;;;18.77;100.00
39739;BME280;25422;48.286;8.484;2022-08-19T11:26:34;94009.44;;;18.70;100.00
39739;BME280;25422;48.286;8.484;2022-08-19T11:29:00;94003.06;;;18.60;100.00
39739;BME280;25422;48.286;8.484;2022-08-19T11:31:30;94010.13;;;18.66;100.00
39739;BME280;25422;48.286;8.484;2022-08-19T11:33:59;94003.81;;;18.97;100.00
39739;BME280;25422;48.286;8.484;2022-08-19T11:36:27;93997.47;;;19.41;100.00
39739;BME280;25422;48.286;8.484;2022-08-19T11:38:53;94000.63;;;19.73;100.00
39739;BME280;25422;48.286;8.484;2022-08-19T11:41:20;94001.88;;;19.70;100.00
39739;BME280;25422;48.286;8.484;2022-08-19T11:43:47;94007.88;;;19.66;100.00
39739;BME280;25422;48.286;8.484;2022-08-19T11:46:15;94006.44;;;19.16;100.00
39739;BME280;25422;48.286;8.484;2022-08-19T11:48:40;94018.94;;;18.78;100.00
39739;BME280;25422;48.286;8.484;2022-08-19T11:51:09;94016.22;;;18.66;100.00
39739;BME280;25422;48.286;8.484;2022-08-19T11:53:36;94005.53;;;18.92;100.00
39739;BME280;25422;48.286;8.484;2022-08-19T11:56:02;94006.97;;;19.06;100.00
39739;BME280;25422;48.286;8.484;2022-08-19T11:58:29;94008.38;;;19.20;100.00
39739;BME280;25422;48.286;8.484;2022-08-19T12:00:54;94018.13;;;19.50;100.00
39739;BME280;25422;48.286;8.484;2022-08-19T12:03:20;94017.56;;;19.72;100.00
39739;BME280;25422;48.286;8.484;2022-08-19T12:05:45;94014.69;;;20.21;100.00
39739;BME280;25422;48.286;8.484;2022-08-19T12:08:11;94018.53;;;20.13;100.00
39739;BME280;25422;48.286;8.484;2022-08-19T12:10:38;94012.06;;;20.09;100.00
39739;BME280;25422;48.286;8.484;2022-08-19T12:13:05;94018.84;;;20.17;100.00
39739;BME280;25422;48.286;8.484;2022-08-19T12:15:36;94016.59;;;19.85;100.00
39739;BME280;25422;48.286;8.484;2022-08-19T12:18:02;94022.69;;;20.09;100.00
39739;BME280;25422;48.286;8.484;2022-08-19T12:20:28;94020.47;;;20.18;100.00
39739;BME280;25422;48.286;8.484;2022-08-19T12:22:53;94014.81;;;20.14;100.00
39739;BME280;25422;48.286;8.484;2022-08-19T12:25:19;94013.78;;;20.03;100.00
39739;BME280;25422;48.286;8.484;2022-08-19T12:27:46;94009.06;;;19.94;100.00
39739;BME280;25422;48.286;8.484;2022-08-19T12:30:12;94020.03;;;19.97;100.00
39739;BME280;25422;48.286;8.484;2022-08-19T12:32:38;94011.72;;;20.17;100.00
39739;BME280;25422;48.286;8.484;2022-08-19T12:35:05;94016.06;;;20.24;100.00
39739;BME280;25422;48.286;8.484;2022-08-19T12:37:31;94009.81;;;20.42;100.00
39739;BME280;25422;48.286;8.484;2022-08-19T12:39:57;94009.72;;;20.36;100.00
39739;BME280;25422;48.286;8.484;2022-08-19T12:42:23;94009.72;;;20.36;100.00
39739;BME280;25422;48.286;8.484;2022-08-19T12:44:49;94011.59;;;20.24;100.00
39739;BME280;25422;48.286;8.484;2022-08-19T12:47:16;94005.56;;;20.29;100.00
39739;BME280;25422;48.286;8.484;2022-08-19T12:49:42;94005.72;;;20.51;100.00
39739;BME280;25422;48.286;8.484;2022-08-19T12:52:09;94010.72;;;20.59;100.00
39739;BME280;25422;48.286;8.484;2022-08-19T12:54:37;94009.31;;;20.57;100.00
39739;BME280;25422;48.286;8.484;2022-08-19T12:57:06;94013.56;;;20.58;100.00